createdAt,value
2018-03-22T00:00:04.010Z,33.6
2018-03-22T00:00:54.071Z,33.6
2018-03-22T00:01:43.539Z,33.6
2018-03-22T00:02:34.785Z,33.6
2018-03-22T00:03:24.435Z,33.6
2018-03-22T00:04:13.242Z,33.6
2018-03-22T00:05:04.081Z,33.6
2018-03-22T00:05:53.739Z,33.6
2018-03-22T00:06:44.675Z,33.6
2018-03-22T00:07:34.036Z,33.6
2018-03-22T00:08:24.294Z,33.6
2018-03-22T00:09:14.968Z,33.6
2018-03-22T00:10:03.418Z,33.6
2018-03-22T00:10:54.336Z,33.6
2018-03-22T00:11:45.013Z,33.6
2018-03-22T00:12:34.011Z,33.6
2018-03-22T00:13:24.696Z,33.6
2018-03-22T00:14:13.990Z,33.6
2018-03-22T00:15:03.783Z,33.6
2018-03-22T00:15:54.106Z,33.6
2018-03-22T00:16:45.065Z,33.6
2018-03-22T00:17:34.543Z,33.6
2018-03-22T00:18:25.398Z,33.6
2018-03-22T00:19:15.409Z,33.6
2018-03-22T00:20:05.478Z,33.6
2018-03-22T00:20:55.483Z,33.6
2018-03-22T00:21:45.510Z,33.6
2018-03-22T00:22:35.373Z,33.6
2018-03-22T00:23:26.015Z,33.5
2018-03-22T00:24:15.418Z,33.5
2018-03-22T00:25:06.050Z,33.5
2018-03-22T00:25:55.301Z,33.5
2018-03-22T00:26:46.073Z,33.5
2018-03-22T00:27:36.193Z,33.5
2018-03-22T00:28:26.557Z,33.5
2018-03-22T00:29:16.071Z,33.5
2018-03-22T00:30:05.613Z,33.5
2018-03-22T00:30:54.870Z,33.5
2018-03-22T00:31:46.327Z,33.5
2018-03-22T00:32:36.231Z,33.5
2018-03-22T00:33:26.342Z,33.5
2018-03-22T00:34:16.273Z,33.5
2018-03-22T00:35:05.673Z,33.4
2018-03-22T00:35:55.726Z,33.4
2018-03-22T00:36:46.449Z,33.5
2018-03-22T00:37:35.927Z,33.4
2018-03-22T00:38:26.715Z,33.4
2018-03-22T00:39:16.784Z,33.4
2018-03-22T00:40:06.853Z,33.4
2018-03-22T00:40:57.169Z,33.4
2018-03-22T00:41:47.109Z,33.4
2018-03-22T00:42:37.328Z,33.4
2018-03-22T00:43:27.025Z,33.4
2018-03-22T00:44:16.463Z,33.4
2018-03-22T00:45:07.358Z,33.4
2018-03-22T00:45:56.618Z,33.4
2018-03-22T00:46:47.442Z,33.4
2018-03-22T00:47:36.631Z,33.4
2018-03-22T00:48:26.414Z,33.4
2018-03-22T00:49:17.528Z,33.4
2018-03-22T00:50:07.073Z,33.4
2018-03-22T00:50:57.051Z,33.4
2018-03-22T00:51:47.089Z,33.4
2018-03-22T00:52:37.501Z,33.4
2018-03-22T00:53:27.448Z,33.4
2018-03-22T00:54:17.382Z,33.4
2018-03-22T00:55:06.671Z,33.4
2018-03-22T00:55:57.570Z,33.4
2018-03-22T00:56:48.065Z,33.4
2018-03-22T00:57:38.493Z,33.4
2018-03-22T00:58:27.489Z,33.4
2018-03-22T00:59:17.540Z,33.4
2018-03-22T01:00:08.719Z,33.4
2018-03-22T01:00:58.858Z,33.4
2018-03-22T01:01:48.361Z,33.3
2018-03-22T01:02:38.473Z,33.4
2018-03-22T01:03:27.933Z,33.4
2018-03-22T01:04:18.783Z,33.3
2018-03-22T01:05:08.365Z,33.4
2018-03-22T01:05:58.104Z,33.3
2018-03-22T01:06:48.645Z,33.3
2018-03-22T01:07:38.491Z,33.3
2018-03-22T01:08:27.981Z,33.3
2018-03-22T01:09:19.225Z,33.3
2018-03-22T01:10:08.463Z,33.3
2018-03-22T01:10:59.030Z,33.3
2018-03-22T01:11:49.405Z,33.3
2018-03-22T01:12:39.174Z,33.3
2018-03-22T01:13:29.119Z,33.3
2018-03-22T01:14:19.165Z,33.3
2018-03-22T01:15:09.522Z,33.3
2018-03-22T01:15:59.870Z,33.3
2018-03-22T01:16:49.134Z,33.3
2018-03-22T01:17:39.748Z,33.3
2018-03-22T01:18:28.793Z,33.3
2018-03-22T01:19:19.952Z,33.3
2018-03-22T01:20:09.080Z,33.3
2018-03-22T01:20:58.858Z,33.3
2018-03-22T01:21:49.491Z,33.3
2018-03-22T01:22:39.907Z,33.3
2018-03-22T01:23:28.851Z,33.3
2018-03-22T01:24:19.402Z,33.3
2018-03-22T01:25:09.336Z,33.3
2018-03-22T01:25:59.794Z,33.3
2018-03-22T01:26:50.334Z,33.3
2018-03-22T01:27:39.906Z,33.3
2018-03-22T01:28:29.744Z,33.3
2018-03-22T01:29:18.745Z,33.3
2018-03-22T01:30:09.593Z,33.3
2018-03-22T01:30:59.862Z,33.2
2018-03-22T01:31:50.099Z,33.2
2018-03-22T01:32:40.492Z,33.2
2018-03-22T01:33:30.314Z,33.2
2018-03-22T01:34:20.486Z,33.3
2018-03-22T01:35:10.742Z,33.2
2018-03-22T01:36:00.479Z,33.2
2018-03-22T01:36:51.353Z,33.2
2018-03-22T01:37:41.122Z,33.2
2018-03-22T01:38:29.793Z,33.2
2018-03-22T01:39:20.726Z,33.2
2018-03-22T01:40:11.007Z,33.2
2018-03-22T01:41:00.934Z,33.2
2018-03-22T01:41:50.527Z,33.2
2018-03-22T01:42:40.800Z,33.2
2018-03-22T01:43:31.415Z,33.2
2018-03-22T01:44:20.700Z,33.2
2018-03-22T01:45:10.703Z,33.2
2018-03-22T01:46:01.508Z,33.2
2018-03-22T01:46:51.155Z,33.2
2018-03-22T01:47:41.531Z,33.1
2018-03-22T01:48:31.576Z,33.1
2018-03-22T01:49:21.499Z,33.2
2018-03-22T01:50:12.250Z,33.1
2018-03-22T01:51:01.053Z,33.1
2018-03-22T01:51:51.791Z,33.1
2018-03-22T01:52:41.451Z,33.1
2018-03-22T01:53:31.431Z,33.1
2018-03-22T01:54:21.780Z,33.1
2018-03-22T01:55:11.351Z,33.1
2018-03-22T01:56:01.621Z,33.1
2018-03-22T01:56:51.841Z,33.1
2018-03-22T01:57:42.498Z,33.1
2018-03-22T01:58:33.495Z,33.1
2018-03-22T01:59:21.457Z,33.1
2018-03-22T02:00:11.924Z,33.1
2018-03-22T02:01:02.525Z,33.1
2018-03-22T02:01:52.819Z,33.1
2018-03-22T02:02:43.127Z,33.1
2018-03-22T02:03:32.799Z,33.1
2018-03-22T02:04:22.064Z,33.2
2018-03-22T02:05:12.525Z,33.2
2018-03-22T02:06:01.914Z,33.3
2018-03-22T02:06:53.412Z,33.3
2018-03-22T02:07:42.338Z,33.3
2018-03-22T02:08:32.165Z,33.4
2018-03-22T02:09:23.029Z,33.4
2018-03-22T02:10:12.621Z,33.5
2018-03-22T02:11:03.335Z,33.6
2018-03-22T02:11:54.052Z,33.6
2018-03-22T02:12:42.739Z,33.7
2018-03-22T02:13:32.640Z,33.8
2018-03-22T02:14:23.086Z,33.9
2018-03-22T02:15:13.411Z,33.9
2018-03-22T02:16:03.001Z,34
2018-03-22T02:16:52.967Z,34.1
2018-03-22T02:17:43.432Z,34.2
2018-03-22T02:18:33.669Z,34.3
2018-03-22T02:19:23.751Z,34.4
2018-03-22T02:20:13.877Z,34.5
2018-03-22T02:21:03.130Z,34.6
2018-03-22T02:21:53.772Z,34.7
2018-03-22T02:22:44.019Z,34.8
2018-03-22T02:23:33.794Z,34.8
2018-03-22T02:24:24.654Z,34.9
2018-03-22T02:25:13.241Z,35.1
2018-03-22T02:26:03.914Z,35.1
2018-03-22T02:26:54.356Z,35.3
2018-03-22T02:27:44.608Z,35.3
2018-03-22T02:28:34.679Z,35.4
2018-03-22T02:29:24.271Z,35.5
2018-03-22T02:30:15.379Z,35.6
2018-03-22T02:31:04.351Z,35.8
2018-03-22T02:31:54.416Z,35.8
2018-03-22T02:32:44.490Z,35.9
2018-03-22T02:33:35.049Z,36
2018-03-22T02:34:24.498Z,36.1
2018-03-22T02:35:14.555Z,36.2
2018-03-22T02:36:04.116Z,36.3
2018-03-22T02:36:54.668Z,36.4
2018-03-22T02:37:45.396Z,36.5
2018-03-22T02:38:34.669Z,36.6
2018-03-22T02:39:24.654Z,36.7
2018-03-22T02:40:15.411Z,36.8
2018-03-22T02:41:05.010Z,36.9
2018-03-22T02:41:55.204Z,37
2018-03-22T02:42:44.331Z,37.1
2018-03-22T02:43:34.657Z,37.3
2018-03-22T02:44:26.154Z,37.4
2018-03-22T02:45:14.868Z,37.5
2018-03-22T02:46:05.573Z,37.6
2018-03-22T02:46:55.460Z,37.7
2018-03-22T02:47:45.262Z,37.8
2018-03-22T02:48:35.749Z,37.9
2018-03-22T02:49:25.840Z,38
2018-03-22T02:50:16.167Z,38.1
2018-03-22T02:51:05.995Z,38.3
2018-03-22T02:51:55.488Z,38.3
2018-03-22T02:52:46.458Z,38.4
2018-03-22T02:53:35.912Z,38.6
2018-03-22T02:54:25.587Z,38.7
2018-03-22T02:55:16.256Z,38.8
2018-03-22T02:56:06.024Z,38.9
2018-03-22T02:56:56.182Z,39
2018-03-22T02:57:45.533Z,39.1
2018-03-22T02:58:36.190Z,39.3
2018-03-22T02:59:26.274Z,39.4
2018-03-22T03:00:17.109Z,39.5
2018-03-22T03:01:06.165Z,39.6
2018-03-22T03:01:57.082Z,39.8
2018-03-22T03:02:46.787Z,39.8
2018-03-22T03:03:36.241Z,39.9
2018-03-22T03:04:26.385Z,40.1
2018-03-22T03:05:16.229Z,40.1
2018-03-22T03:06:06.696Z,40.2
2018-03-22T03:06:56.980Z,40.3
2018-03-22T03:07:47.390Z,40.3
2018-03-22T03:08:37.541Z,40.3
2018-03-22T03:09:26.135Z,40.4
2018-03-22T03:10:15.993Z,40.4
2018-03-22T03:11:07.156Z,40.4
2018-03-22T03:11:56.596Z,40.5
2018-03-22T03:12:47.323Z,40.5
2018-03-22T03:13:37.189Z,40.5
2018-03-22T03:14:27.629Z,40.6
2018-03-22T03:15:17.246Z,40.6
2018-03-22T03:16:08.066Z,40.6
2018-03-22T03:16:57.168Z,40.6
2018-03-22T03:17:47.256Z,40.6
2018-03-22T03:18:37.641Z,40.6
2018-03-22T03:19:28.255Z,40.6
2018-03-22T03:20:17.080Z,40.6
2018-03-22T03:21:07.825Z,40.7
2018-03-22T03:21:58.638Z,40.7
2018-03-22T03:22:47.950Z,40.7
2018-03-22T03:23:38.798Z,40.8
2018-03-22T03:24:27.568Z,40.8
2018-03-22T03:25:17.513Z,40.8
2018-03-22T03:26:08.175Z,40.8
2018-03-22T03:26:57.640Z,40.9
2018-03-22T03:27:48.082Z,40.9
2018-03-22T03:28:38.260Z,40.9
2018-03-22T03:29:28.909Z,40.9
2018-03-22T03:30:18.304Z,40.9
2018-03-22T03:31:08.649Z,40.9
2018-03-22T03:31:58.847Z,40.9
2018-03-22T03:32:48.390Z,40.9
2018-03-22T03:33:38.123Z,40.9
2018-03-22T03:34:29.798Z,40.9
2018-03-22T03:35:18.548Z,40.9
2018-03-22T03:36:09.197Z,40.9
2018-03-22T03:36:58.957Z,40.9
2018-03-22T03:37:48.310Z,40.9
2018-03-22T03:38:38.182Z,40.9
2018-03-22T03:39:28.682Z,40.9
2018-03-22T03:40:18.790Z,40.9
2018-03-22T03:41:08.940Z,40.9
2018-03-22T03:41:58.812Z,40.9
2018-03-22T03:42:48.755Z,40.9
2018-03-22T03:43:40.015Z,40.9
2018-03-22T03:44:29.468Z,40.9
2018-03-22T03:45:20.031Z,40.9
2018-03-22T03:46:08.976Z,40.9
2018-03-22T03:47:00.436Z,40.9
2018-03-22T03:47:49.033Z,40.9
2018-03-22T03:48:40.496Z,40.9
2018-03-22T03:49:29.338Z,40.9
2018-03-22T03:50:19.554Z,40.9
2018-03-22T03:51:09.848Z,40.9
2018-03-22T03:51:59.404Z,40.9
2018-03-22T03:52:50.669Z,40.9
2018-03-22T03:53:39.907Z,40.9
2018-03-22T03:54:30.067Z,40.9
2018-03-22T03:55:19.909Z,40.9
2018-03-22T03:56:10.216Z,40.9
2018-03-22T03:57:00.326Z,40.9
2018-03-22T03:57:50.401Z,40.9
2018-03-22T03:58:40.221Z,40.9
2018-03-22T03:59:31.133Z,40.9
2018-03-22T04:00:20.155Z,40.9
2018-03-22T04:01:11.137Z,40.9
2018-03-22T04:02:00.396Z,40.9
2018-03-22T04:02:50.536Z,40.9
2018-03-22T04:03:40.869Z,40.9
2018-03-22T04:04:30.777Z,40.9
2018-03-22T04:05:21.395Z,40.9
2018-03-22T04:06:11.245Z,40.9
2018-03-22T04:07:00.358Z,40.9
2018-03-22T04:07:50.999Z,40.9
2018-03-22T04:08:40.852Z,40.9
2018-03-22T04:09:31.116Z,40.9
2018-03-22T04:10:21.552Z,40.9
2018-03-22T04:11:11.680Z,40.9
2018-03-22T04:12:02.762Z,40.9
2018-03-22T04:12:52.208Z,40.9
2018-03-22T04:13:41.974Z,40.9
2018-03-22T04:14:31.468Z,40.9
2018-03-22T04:15:21.218Z,40.9
2018-03-22T04:16:11.782Z,40.9
2018-03-22T04:17:02.080Z,40.9
2018-03-22T04:17:51.784Z,40.9
2018-03-22T04:18:41.150Z,40.9
2018-03-22T04:19:31.999Z,41
2018-03-22T04:20:22.346Z,41
2018-03-22T04:21:11.842Z,41
2018-03-22T04:22:01.755Z,41
2018-03-22T04:22:52.419Z,41.1
2018-03-22T04:23:42.259Z,41
2018-03-22T04:24:32.439Z,41
2018-03-22T04:25:21.747Z,41
2018-03-22T04:26:11.365Z,41
2018-03-22T04:27:02.621Z,41
2018-03-22T04:27:53.596Z,40.9
2018-03-22T04:28:42.847Z,40.9
2018-03-22T04:29:33.139Z,40.9
2018-03-22T04:30:23.132Z,40.9
2018-03-22T04:31:13.599Z,40.9
2018-03-22T04:32:02.976Z,40.9
2018-03-22T04:32:53.123Z,40.9
2018-03-22T04:33:43.081Z,40.9
2018-03-22T04:34:33.198Z,40.9
2018-03-22T04:35:23.214Z,40.9
2018-03-22T04:36:13.068Z,40.9
2018-03-22T04:37:02.630Z,40.9
2018-03-22T04:37:53.458Z,40.9
2018-03-22T04:38:43.313Z,40.8
2018-03-22T04:39:33.800Z,40.9
2018-03-22T04:40:23.030Z,40.8
2018-03-22T04:41:13.103Z,40.8
2018-03-22T04:42:03.172Z,40.8
2018-03-22T04:42:54.028Z,40.8
2018-03-22T04:43:43.383Z,40.8
2018-03-22T04:44:33.473Z,40.8
2018-03-22T04:45:23.917Z,40.8
2018-03-22T04:46:13.162Z,40.8
2018-03-22T04:47:02.766Z,40.8
2018-03-22T04:47:54.391Z,40.8
2018-03-22T04:48:44.599Z,40.8
2018-03-22T04:49:33.993Z,40.8
2018-03-22T04:50:23.815Z,40.8
2018-03-22T04:51:13.443Z,40.8
2018-03-22T04:52:03.960Z,40.8
2018-03-22T04:52:53.956Z,40.8
2018-03-22T04:53:45.310Z,40.7
2018-03-22T04:54:35.402Z,40.8
2018-03-22T04:55:25.401Z,40.7
2018-03-22T04:56:15.217Z,40.7
2018-03-22T04:57:05.217Z,40.7
2018-03-22T04:57:55.318Z,40.7
2018-03-22T04:58:45.370Z,40.7
2018-03-22T04:59:35.739Z,40.7
2018-03-22T05:00:25.507Z,40.7
2018-03-22T05:01:15.588Z,40.7
2018-03-22T05:02:04.480Z,40.6
2018-03-22T05:02:55.947Z,40.7
2018-03-22T05:03:45.751Z,40.7
2018-03-22T05:04:35.800Z,40.6
2018-03-22T05:05:25.840Z,40.6
2018-03-22T05:06:16.212Z,40.6
2018-03-22T05:07:06.067Z,40.6
2018-03-22T05:07:56.597Z,40.6
2018-03-22T05:08:45.499Z,40.6
2018-03-22T05:09:36.683Z,40.6
2018-03-22T05:10:26.767Z,40.6
2018-03-22T05:11:16.542Z,40.6
2018-03-22T05:12:06.049Z,40.6
2018-03-22T05:12:56.347Z,40.6
2018-03-22T05:13:46.494Z,40.6
2018-03-22T05:14:36.829Z,40.6
2018-03-22T05:15:26.331Z,40.6
2018-03-22T05:16:16.601Z,40.6
2018-03-22T05:17:07.001Z,40.6
2018-03-22T05:17:56.974Z,40.6
2018-03-22T05:18:47.568Z,40.6
2018-03-22T05:19:36.821Z,40.6
2018-03-22T05:20:26.631Z,40.6
2018-03-22T05:21:17.502Z,40.5
2018-03-22T05:22:07.289Z,40.5
2018-03-22T05:22:56.774Z,40.5
2018-03-22T05:23:47.714Z,40.5
2018-03-22T05:24:37.788Z,40.5
2018-03-22T05:25:27.245Z,40.5
2018-03-22T05:26:17.826Z,40.5
2018-03-22T05:27:07.646Z,40.5
2018-03-22T05:27:57.682Z,40.5
2018-03-22T05:28:48.026Z,40.5
2018-03-22T05:29:37.784Z,40.5
2018-03-22T05:30:27.579Z,40.5
2018-03-22T05:31:18.259Z,40.4
2018-03-22T05:32:07.689Z,40.4
2018-03-22T05:32:57.727Z,40.4
2018-03-22T05:33:48.138Z,40.4
2018-03-22T05:34:38.198Z,40.4
2018-03-22T05:35:28.498Z,40.4
2018-03-22T05:36:18.516Z,40.4
2018-03-22T05:37:08.354Z,40.4
2018-03-22T05:37:58.373Z,40.4
2018-03-22T05:38:48.702Z,40.4
2018-03-22T05:39:38.744Z,40.4
2018-03-22T05:40:28.843Z,40.4
2018-03-22T05:41:18.576Z,40.4
2018-03-22T05:42:08.148Z,40.4
2018-03-22T05:42:57.945Z,40.4
2018-03-22T05:43:48.288Z,40.4
2018-03-22T05:44:38.338Z,40.4
2018-03-22T05:45:26.753Z,40.3
2018-03-22T05:46:18.488Z,40.3
2018-03-22T05:47:07.881Z,40.3
2018-03-22T05:47:58.436Z,40.3
2018-03-22T05:48:48.563Z,40.3
2018-03-22T05:49:38.653Z,40.3
2018-03-22T05:50:28.863Z,40.3
2018-03-22T05:51:18.272Z,40.3
2018-03-22T05:52:08.671Z,40.3
2018-03-22T05:52:58.190Z,40.3
2018-03-22T05:53:48.635Z,40.3
2018-03-22T05:54:38.208Z,40.3
2018-03-22T05:55:28.469Z,40.3
2018-03-22T05:56:18.712Z,40.3
2018-03-22T05:57:08.955Z,40.3
2018-03-22T05:57:59.238Z,40.3
2018-03-22T05:58:49.370Z,40.3
2018-03-22T05:59:39.457Z,40.2
2018-03-22T06:00:29.593Z,40.3
2018-03-22T06:01:19.771Z,40.2
2018-03-22T06:02:09.127Z,40.2
2018-03-22T06:02:59.110Z,40.2
2018-03-22T06:03:49.451Z,40.2
2018-03-22T06:04:39.083Z,40.2
2018-03-22T06:05:28.975Z,40.2
2018-03-22T06:06:19.222Z,40.2
2018-03-22T06:07:08.784Z,40.2
2018-03-22T06:07:59.479Z,40.1
2018-03-22T06:08:50.357Z,40.1
2018-03-22T06:09:39.749Z,40.1
2018-03-22T06:10:29.808Z,40.1
2018-03-22T06:11:20.521Z,40.1
2018-03-22T06:12:09.429Z,40.1
2018-03-22T06:13:00.141Z,40.1
2018-03-22T06:13:49.567Z,40.1
2018-03-22T06:14:40.263Z,40.1
2018-03-22T06:15:29.470Z,40.1
2018-03-22T06:16:20.797Z,40.1
2018-03-22T06:17:09.699Z,40.1
2018-03-22T06:18:00.708Z,40.1
2018-03-22T06:18:49.922Z,40.1
2018-03-22T06:19:39.937Z,40.1
2018-03-22T06:20:30.304Z,40.1
2018-03-22T06:21:20.476Z,40
2018-03-22T06:22:10.299Z,40
2018-03-22T06:23:00.352Z,40
2018-03-22T06:23:50.912Z,40
2018-03-22T06:24:40.683Z,40
2018-03-22T06:25:30.080Z,40
2018-03-22T06:26:20.731Z,40
2018-03-22T06:27:09.658Z,40
2018-03-22T06:28:01.318Z,40
2018-03-22T06:28:51.311Z,40
2018-03-22T06:29:40.766Z,40
2018-03-22T06:30:29.910Z,40
2018-03-22T06:31:20.941Z,40
2018-03-22T06:32:11.381Z,39.9
2018-03-22T06:33:01.358Z,40
2018-03-22T06:33:50.346Z,39.9
2018-03-22T06:34:41.668Z,39.9
2018-03-22T06:35:31.266Z,39.9
2018-03-22T06:36:21.418Z,39.9
2018-03-22T06:37:12.375Z,39.9
2018-03-22T06:38:00.868Z,39.9
2018-03-22T06:38:51.673Z,39.9
2018-03-22T06:39:41.638Z,39.9
2018-03-22T06:40:30.730Z,39.9
2018-03-22T06:41:21.395Z,39.9
2018-03-22T06:42:11.700Z,39.9
2018-03-22T06:43:02.234Z,39.9
2018-03-22T06:43:52.093Z,39.9
2018-03-22T06:44:41.703Z,39.9
2018-03-22T06:45:31.637Z,39.9
2018-03-22T06:46:21.643Z,39.9
2018-03-22T06:47:12.327Z,39.8
2018-03-22T06:48:01.738Z,39.9
2018-03-22T06:48:51.873Z,39.8
2018-03-22T06:49:42.448Z,39.8
2018-03-22T06:50:32.273Z,39.8
2018-03-22T06:51:22.155Z,39.8
2018-03-22T06:52:12.688Z,39.8
2018-03-22T06:53:03.218Z,39.8
2018-03-22T06:53:52.217Z,39.8
2018-03-22T06:54:42.539Z,39.8
2018-03-22T06:55:32.344Z,39.8
2018-03-22T06:56:21.955Z,39.8
2018-03-22T06:57:12.244Z,39.8
2018-03-22T06:58:03.374Z,39.8
2018-03-22T06:58:52.755Z,39.8
2018-03-22T06:59:42.809Z,39.8
2018-03-22T07:00:33.581Z,39.7
2018-03-22T07:01:23.044Z,39.7
2018-03-22T07:02:13.152Z,39.7
2018-03-22T07:03:04.115Z,39.7
2018-03-22T07:03:53.937Z,39.7
2018-03-22T07:04:43.688Z,39.6
2018-03-22T07:05:33.199Z,39.6
2018-03-22T07:06:23.394Z,39.6
2018-03-22T07:07:12.633Z,39.6
2018-03-22T07:08:03.689Z,39.6
2018-03-22T07:08:53.134Z,39.6
2018-03-22T07:09:43.598Z,39.6
2018-03-22T07:10:33.794Z,39.6
2018-03-22T07:11:23.803Z,39.6
2018-03-22T07:12:14.423Z,39.6
2018-03-22T07:13:04.063Z,39.6
2018-03-22T07:13:54.223Z,39.6
2018-03-22T07:14:44.535Z,39.6
2018-03-22T07:15:33.398Z,39.6
2018-03-22T07:16:24.365Z,39.6
2018-03-22T07:17:14.514Z,39.6
2018-03-22T07:18:04.423Z,39.5
2018-03-22T07:18:54.464Z,39.5
2018-03-22T07:19:45.052Z,39.5
2018-03-22T07:20:34.283Z,39.5
2018-03-22T07:21:24.790Z,39.5
2018-03-22T07:22:14.789Z,39.4
2018-03-22T07:23:04.698Z,39.5
2018-03-22T07:23:54.685Z,39.4
2018-03-22T07:24:45.251Z,39.4
2018-03-22T07:25:33.930Z,39.4
2018-03-22T07:26:24.715Z,39.4
2018-03-22T07:27:14.993Z,39.4
2018-03-22T07:28:04.958Z,39.4
2018-03-22T07:28:54.936Z,39.5
2018-03-22T07:29:45.390Z,39.5
2018-03-22T07:30:35.123Z,39.5
2018-03-22T07:31:25.959Z,39.5
2018-03-22T07:32:15.817Z,39.5
2018-03-22T07:33:05.802Z,39.5
2018-03-22T07:33:56.199Z,39.6
2018-03-22T07:34:45.321Z,39.6
2018-03-22T07:35:36.820Z,39.6
2018-03-22T07:36:26.569Z,39.6
2018-03-22T07:37:16.347Z,39.6
2018-03-22T07:38:06.852Z,39.6
2018-03-22T07:38:56.792Z,39.6
2018-03-22T07:39:46.553Z,39.6
2018-03-22T07:40:36.060Z,39.6
2018-03-22T07:41:25.493Z,39.6
2018-03-22T07:42:16.258Z,39.6
2018-03-22T07:43:05.829Z,39.6
2018-03-22T07:43:55.901Z,39.6
2018-03-22T07:44:46.538Z,39.6
2018-03-22T07:45:36.500Z,39.6
2018-03-22T07:46:26.848Z,39.6
2018-03-22T07:47:17.204Z,39.6
2018-03-22T07:48:06.583Z,39.6
2018-03-22T07:48:57.300Z,39.6
2018-03-22T07:49:46.458Z,39.6
2018-03-22T07:50:36.350Z,39.6
2018-03-22T07:51:27.293Z,39.6
2018-03-22T07:52:16.735Z,39.6
2018-03-22T07:53:07.792Z,39.6
2018-03-22T07:53:57.248Z,39.6
2018-03-22T07:54:47.862Z,39.6
2018-03-22T07:55:37.140Z,39.6
2018-03-22T07:56:27.129Z,39.6
2018-03-22T07:57:18.386Z,39.6
2018-03-22T07:58:07.327Z,39.6
2018-03-22T07:58:57.431Z,39.5
2018-03-22T07:59:47.985Z,39.5
2018-03-22T08:00:37.450Z,39.5
2018-03-22T08:01:25.435Z,39.5
2018-03-22T08:02:16.847Z,39.5
2018-03-22T08:03:07.008Z,39.5
2018-03-22T08:03:57.659Z,39.5
2018-03-22T08:04:47.729Z,39.5
2018-03-22T08:05:37.957Z,39.5
2018-03-22T08:06:27.642Z,39.5
2018-03-22T08:07:17.942Z,39.5
2018-03-22T08:08:07.649Z,39.5
2018-03-22T08:08:57.889Z,39.5
2018-03-22T08:09:48.963Z,39.4
2018-03-22T08:10:37.787Z,39.5
2018-03-22T08:11:27.281Z,39.5
2018-03-22T08:12:18.514Z,39.5
2018-03-22T08:13:08.081Z,39.4
2018-03-22T08:13:58.161Z,39.4
2018-03-22T08:14:48.098Z,39.4
2018-03-22T08:15:37.772Z,39.4
2018-03-22T08:16:29.057Z,39.4
2018-03-22T08:17:18.293Z,39.4
2018-03-22T08:18:08.936Z,39.4
2018-03-22T08:18:58.371Z,39.4
2018-03-22T08:19:47.636Z,39.4
2018-03-22T08:20:39.306Z,39.4
2018-03-22T08:21:28.343Z,39.4
2018-03-22T08:22:18.508Z,39.4
2018-03-22T08:23:08.496Z,39.4
2018-03-22T08:23:58.418Z,39.4
2018-03-22T08:24:48.577Z,39.4
2018-03-22T08:25:38.103Z,39.4
2018-03-22T08:26:29.356Z,39.4
2018-03-22T08:27:19.065Z,39.4
2018-03-22T08:28:09.496Z,39.4
2018-03-22T08:28:59.853Z,39.4
2018-03-22T08:29:49.271Z,39.4
2018-03-22T08:30:38.195Z,39.4
2018-03-22T08:31:28.943Z,39.4
2018-03-22T08:32:19.195Z,39.4
2018-03-22T08:33:09.288Z,39.4
2018-03-22T08:33:59.563Z,39.4
2018-03-22T08:34:50.382Z,39.3
2018-03-22T08:35:39.557Z,39.3
2018-03-22T08:36:30.225Z,39.3
2018-03-22T08:37:20.037Z,39.3
2018-03-22T08:38:09.500Z,39.3
2018-03-22T08:38:59.640Z,39.3
2018-03-22T08:39:49.712Z,39.3
2018-03-22T08:40:39.950Z,39.3
2018-03-22T08:41:30.310Z,39.3
2018-03-22T08:42:20.408Z,39.3
2018-03-22T08:43:11.498Z,39.3
2018-03-22T08:44:00.087Z,39.3
2018-03-22T08:44:49.989Z,39.3
2018-03-22T08:45:39.922Z,39.3
2018-03-22T08:46:31.274Z,39.3
2018-03-22T08:47:20.119Z,39.3
2018-03-22T08:48:10.489Z,39.3
2018-03-22T08:49:00.936Z,39.3
2018-03-22T08:49:50.892Z,39.3
2018-03-22T08:50:41.297Z,39.3
2018-03-22T08:51:31.422Z,39.3
2018-03-22T08:52:20.813Z,39.2
2018-03-22T08:53:10.347Z,39.2
2018-03-22T08:54:01.431Z,39.2
2018-03-22T08:54:52.809Z,39.2
2018-03-22T08:55:41.809Z,39.2
2018-03-22T08:56:32.094Z,39.2
2018-03-22T08:57:21.705Z,39.2
2018-03-22T08:58:11.524Z,39.2
2018-03-22T08:59:01.570Z,39.2
2018-03-22T08:59:50.871Z,39.2
2018-03-22T09:00:41.574Z,39.1
2018-03-22T09:01:31.219Z,39.1
2018-03-22T09:02:21.486Z,39.1
2018-03-22T09:03:11.248Z,39.1
2018-03-22T09:04:01.366Z,39.1
2018-03-22T09:04:52.455Z,39.1
2018-03-22T09:05:41.784Z,39.1
2018-03-22T09:06:32.625Z,39.1
2018-03-22T09:07:21.816Z,39.1
2018-03-22T09:08:12.158Z,39.1
2018-03-22T09:09:02.724Z,39.1
2018-03-22T09:09:52.435Z,39.1
2018-03-22T09:10:42.473Z,39.1
2018-03-22T09:11:32.716Z,39.1
2018-03-22T09:12:21.093Z,39.1
2018-03-22T09:13:12.481Z,39.1
2018-03-22T09:14:02.849Z,39.1
2018-03-22T09:14:52.119Z,39.1
2018-03-22T09:15:42.455Z,39.1
2018-03-22T09:16:32.145Z,39.1
2018-03-22T09:17:23.061Z,39.1
2018-03-22T09:18:12.641Z,39.1
2018-03-22T09:19:02.711Z,39.1
2018-03-22T09:19:52.876Z,39.1
2018-03-22T09:20:42.707Z,39.1
2018-03-22T09:21:32.430Z,39
2018-03-22T09:22:22.873Z,39
2018-03-22T09:23:12.912Z,39
2018-03-22T09:24:03.155Z,39
2018-03-22T09:24:52.852Z,39
2018-03-22T09:25:42.478Z,39
2018-03-22T09:26:32.859Z,39
2018-03-22T09:27:23.515Z,39
2018-03-22T09:28:13.392Z,39
2018-03-22T09:29:04.105Z,39
2018-03-22T09:29:53.181Z,39
2018-03-22T09:30:44.314Z,38.9
2018-03-22T09:31:33.800Z,38.9
2018-03-22T09:32:23.338Z,38.9
2018-03-22T09:33:13.942Z,38.9
2018-03-22T09:34:04.002Z,38.9
2018-03-22T09:34:54.874Z,38.9
2018-03-22T09:35:44.042Z,38.9
2018-03-22T09:36:33.137Z,38.9
2018-03-22T09:37:23.197Z,38.9
2018-03-22T09:38:15.022Z,38.9
2018-03-22T09:39:04.393Z,38.9
2018-03-22T09:39:54.544Z,38.9
2018-03-22T09:40:43.522Z,38.9
2018-03-22T09:41:34.565Z,38.9
2018-03-22T09:42:23.924Z,38.9
2018-03-22T09:43:13.592Z,38.9
2018-03-22T09:44:04.869Z,38.9
2018-03-22T09:44:54.204Z,38.9
2018-03-22T09:45:44.086Z,38.8
2018-03-22T09:46:33.511Z,38.8
2018-03-22T09:47:24.559Z,38.8
2018-03-22T09:48:14.756Z,38.8
2018-03-22T09:49:05.356Z,38.6
2018-03-22T09:49:55.355Z,38.6
2018-03-22T09:50:45.302Z,38.6
2018-03-22T09:51:34.429Z,38.4
2018-03-22T09:52:25.201Z,38.4
2018-03-22T09:53:15.273Z,38.4
2018-03-22T09:54:04.643Z,38.4
2018-03-22T09:54:54.701Z,38.4
2018-03-22T09:55:45.861Z,38.5
2018-03-22T09:56:35.011Z,38.5
2018-03-22T09:57:26.346Z,38.5
2018-03-22T09:58:15.528Z,38.5
2018-03-22T09:59:06.751Z,38.5
2018-03-22T09:59:56.500Z,38.5
2018-03-22T10:00:46.552Z,38.5
2018-03-22T10:01:36.892Z,38.5
2018-03-22T10:02:26.928Z,38.5
2018-03-22T10:03:16.703Z,38.5
2018-03-22T10:04:06.506Z,38.5
2018-03-22T10:04:56.330Z,38.5
2018-03-22T10:05:45.873Z,38.5
2018-03-22T10:06:37.199Z,38.5
2018-03-22T10:07:27.314Z,38.5
2018-03-22T10:08:17.029Z,38.4
2018-03-22T10:09:06.635Z,38.5
2018-03-22T10:09:56.370Z,38.5
2018-03-22T10:10:46.440Z,38.5
2018-03-22T10:11:37.308Z,38.5
2018-03-22T10:12:27.630Z,38.5
2018-03-22T10:13:17.198Z,38.5
2018-03-22T10:14:06.652Z,38.5
2018-03-22T10:14:56.475Z,38.5
2018-03-22T10:15:47.087Z,38.4
2018-03-22T10:16:37.392Z,38.4
2018-03-22T10:17:26.817Z,38.4
2018-03-22T10:18:17.785Z,38.3
2018-03-22T10:19:07.577Z,38.3
2018-03-22T10:19:57.349Z,38.3
2018-03-22T10:20:47.901Z,38.3
2018-03-22T10:21:37.458Z,38.1
2018-03-22T10:22:27.808Z,38.1
2018-03-22T10:23:17.564Z,38.1
2018-03-22T10:24:07.050Z,38
2018-03-22T10:24:57.939Z,38
2018-03-22T10:25:47.227Z,38
2018-03-22T10:26:38.297Z,38.1
2018-03-22T10:27:28.140Z,38.1
2018-03-22T10:28:17.879Z,38.1
2018-03-22T10:29:07.922Z,38.1
2018-03-22T10:29:58.851Z,38.1
2018-03-22T10:30:48.127Z,38.1
2018-03-22T10:31:38.442Z,38.1
2018-03-22T10:32:28.682Z,38.1
2018-03-22T10:33:19.102Z,38.1
2018-03-22T10:34:08.002Z,38.1
2018-03-22T10:34:58.101Z,38.1
2018-03-22T10:35:48.188Z,38.1
2018-03-22T10:36:36.951Z,38.1
2018-03-22T10:37:27.734Z,38.1
2018-03-22T10:38:19.318Z,38.1
2018-03-22T10:39:07.947Z,38.1
2018-03-22T10:39:57.678Z,38.1
2018-03-22T10:40:48.277Z,38.1
2018-03-22T10:41:38.948Z,38.1
2018-03-22T10:42:28.705Z,38.1
2018-03-22T10:43:19.138Z,38.1
2018-03-22T10:44:07.901Z,38.1
2018-03-22T10:44:59.379Z,38.1
2018-03-22T10:45:48.061Z,38.1
2018-03-22T10:46:38.329Z,38.1
2018-03-22T10:47:28.470Z,38.1
2018-03-22T10:48:19.243Z,38.1
2018-03-22T10:49:08.927Z,38.1
2018-03-22T10:49:58.548Z,38.1
2018-03-22T10:50:48.845Z,38.1
2018-03-22T10:51:38.773Z,38.1
2018-03-22T10:52:29.986Z,38.1
2018-03-22T10:53:19.367Z,38
2018-03-22T10:54:09.230Z,38
2018-03-22T10:54:59.085Z,37.9
2018-03-22T10:55:49.850Z,37.9
2018-03-22T10:56:39.125Z,37.8
2018-03-22T10:57:28.890Z,37.8
2018-03-22T10:58:19.060Z,37.8
2018-03-22T10:59:09.966Z,37.8
2018-03-22T10:59:59.046Z,37.8
2018-03-22T11:00:49.581Z,37.8
2018-03-22T11:01:39.172Z,37.8
2018-03-22T11:02:29.380Z,37.8
2018-03-22T11:03:20.120Z,37.8
2018-03-22T11:04:10.350Z,37.8
2018-03-22T11:04:59.477Z,37.8
2018-03-22T11:05:50.158Z,37.8
2018-03-22T11:06:40.800Z,37.8
2018-03-22T11:07:29.780Z,37.8
2018-03-22T11:08:20.867Z,37.8